sensor_id;sensor_type;location;lat;lon;timestamp;pressure;altitude;pressure_sealevel;temperature;humidity
70930;BME280;58588;48.102;19.682;2023-04-24T00:02:47;98764.63;;;7.83;100.00
70930;BME280;58588;48.102;19.682;2023-04-24T00:05:50;98758.53;;;7.74;100.00
70930;BME280;58588;48.102;19.682;2023-04-24T00:08:52;98749.94;;;7.64;100.00
70930;BME280;58588;48.102;19.682;2023-04-24T00:11:54;98751.13;;;7.46;100.00
70930;BME280;58588;48.102;19.682;2023-04-24T00:14:57;98745.19;;;7.21;100.00
70930;BME280;58588;48.102;19.682;2023-04-24T00:18:00;98740.81;;;7.06;100.00
70930;BME280;58588;48.102;19.682;2023-04-24T00:21:03;98737.59;;;7.10;100.00
70930;BME280;58588;48.102;19.682;2023-04-24T00:24:05;98738.44;;;7.11;100.00
70930;BME280;58588;48.102;19.682;2023-04-24T00:27:09;98726.78;;;7.04;100.00
70930;BME280;58588;48.102;19.682;2023-04-24T00:30:11;98725.84;;;7.11;100.00
70930;BME280;58588;48.102;19.682;2023-04-24T00:33:15;98724.38;;;7.09;100.00
70930;BME280;58588;48.102;19.682;2023-04-24T00:36:17;98722.78;;;7.00;100.00
70930;BME280;58588;48.102;19.682;2023-04-24T00:39:21;98720.19;;;6.91;100.00
70930;BME280;58588;48.102;19.682;2023-04-24T00:42:23;98723.31;;;6.95;100.00
70930;BME280;58588;48.102;19.682;2023-04-24T00:45:25;98716.41;;;6.86;100.00
70930;BME280;58588;48.102;19.682;2023-04-24T00:48:29;98721.53;;;6.73;100.00
70930;BME280;58588;48.102;19.682;2023-04-24T00:51:32;98716.72;;;6.68;100.00
70930;BME280;58588;48.102;19.682;2023-04-24T00:54:35;98718.47;;;6.76;100.00
70930;BME280;58588;48.102;19.682;2023-04-24T00:57:37;98724.03;;;6.74;100.00
70930;BME280;58588;48.102;19.682;2023-04-24T01:00:39;98725.03;;;6.73;100.00
70930;BME280;58588;48.102;19.682;2023-04-24T01:03:42;98723.84;;;6.76;100.00
70930;BME280;58588;48.102;19.682;2023-04-24T01:06:45;98732.81;;;6.83;100.00
70930;BME280;58588;48.102;19.682;2023-04-24T01:09:48;98713.44;;;6.95;100.00
70930;BME280;58588;48.102;19.682;2023-04-24T01:12:51;98708.06;;;6.95;100.00
70930;BME280;58588;48.102;19.682;2023-04-24T01:15:53;98713.81;;;7.07;100.00
70930;BME280;58588;48.102;19.682;2023-04-24T01:18:57;98708.94;;;6.96;100.00
70930;BME280;58588;48.102;19.682;2023-04-24T01:22:02;98715.28;;;6.80;100.00
70930;BME280;58588;48.102;19.682;2023-04-24T01:25:06;98714.78;;;6.77;100.00
70930;BME280;58588;48.102;19.682;2023-04-24T01:28:08;98724.69;;;6.53;100.00
70930;BME280;58588;48.102;19.682;2023-04-24T01:31:10;98720.13;;;6.62;100.00
70930;BME280;58588;48.102;19.682;2023-04-24T01:34:13;98728.16;;;6.62;100.00
70930;BME280;58588;48.102;19.682;2023-04-24T01:37:15;98734.41;;;6.54;100.00
70930;BME280;58588;48.102;19.682;2023-04-24T01:40:19;98735.03;;;6.33;100.00
70930;BME280;58588;48.102;19.682;2023-04-24T01:43:21;98728.78;;;6.41;100.00
70930;BME280;58588;48.102;19.682;2023-04-24T01:46:24;98736.59;;;6.51;100.00
70930;BME280;58588;48.102;19.682;2023-04-24T01:49:26;98734.09;;;6.49;100.00
70930;BME280;58588;48.102;19.682;2023-04-24T01:52:29;98718.25;;;6.62;100.00
70930;BME280;58588;48.102;19.682;2023-04-24T01:55:33;98710.81;;;6.73;100.00
70930;BME280;58588;48.102;19.682;2023-04-24T01:58:35;98708.56;;;6.61;100.00
70930;BME280;58588;48.102;19.682;2023-04-24T02:01:38;98712.19;;;6.46;100.00
70930;BME280;58588;48.102;19.682;2023-04-24T02:04:40;98703.56;;;6.58;100.00
70930;BME280;58588;48.102;19.682;2023-04-24T02:07:42;98709.47;;;6.54;100.00
70930;BME280;58588;48.102;19.682;2023-04-24T02:10:46;98704.56;;;6.34;100.00
70930;BME280;58588;48.102;19.682;2023-04-24T02:13:48;98707.34;;;6.49;100.00
70930;BME280;58588;48.102;19.682;2023-04-24T02:16:50;98695.63;;;6.65;100.00
70930;BME280;58588;48.102;19.682;2023-04-24T02:19:53;98693.44;;;6.68;100.00
70930;BME280;58588;48.102;19.682;2023-04-24T02:22:55;98697.75;;;6.55;100.00
70930;BME280;58588;48.102;19.682;2023-04-24T02:25:59;98695.81;;;6.63;100.00
70930;BME280;58588;48.102;19.682;2023-04-24T02:29:01;98690.28;;;6.65;100.00
70930;BME280;58588;48.102;19.682;2023-04-24T02:32:03;98686.44;;;6.67;100.00
70930;BME280;58588;48.102;19.682;2023-04-24T02:35:06;98680.34;;;6.74;100.00
70930;BME280;58588;48.102;19.682;2023-04-24T02:38:08;98685.56;;;6.90;100.00
70930;BME280;58588;48.102;19.682;2023-04-24T02:41:12;98677.22;;;7.00;100.00
70930;BME280;58588;48.102;19.682;2023-04-24T02:44:14;98661.53;;;7.11;100.00
70930;BME280;58588;48.102;19.682;2023-04-24T02:47:16;98658.31;;;7.16;100.00
70930;BME280;58588;48.102;19.682;2023-04-24T02:50:20;98662.66;;;7.02;100.00
70930;BME280;58588;48.102;19.682;2023-04-24T02:53:22;98660.44;;;7.06;100.00
70930;BME280;58588;48.102;19.682;2023-04-24T02:56:25;98658.41;;;7.08;100.00
70930;BME280;58588;48.102;19.682;2023-04-24T02:59:27;98654.03;;;7.07;100.00
70930;BME280;58588;48.102;19.682;2023-04-24T03:02:29;98651.06;;;7.02;100.00
70930;BME280;58588;48.102;19.682;2023-04-24T03:05:31;98651.00;;;7.10;100.00
70930;BME280;58588;48.102;19.682;2023-04-24T03:08:34;98648.88;;;7.05;100.00
70930;BME280;58588;48.102;19.682;2023-04-24T03:11:37;98647.22;;;7.04;100.00
70930;BME280;58588;48.102;19.682;2023-04-24T03:14:40;98651.75;;;7.04;100.00
70930;BME280;58588;48.102;19.682;2023-04-24T03:17:42;98642.50;;;7.06;100.00
70930;BME280;58588;48.102;19.682;2023-04-24T03:20:45;98643.16;;;7.08;100.00
70930;BME280;58588;48.102;19.682;2023-04-24T03:23:47;98646.56;;;7.02;100.00
70930;BME280;58588;48.102;19.682;2023-04-24T03:26:51;98638.06;;;6.98;100.00
70930;BME280;58588;48.102;19.682;2023-04-24T03:29:53;98647.22;;;7.04;100.00
70930;BME280;58588;48.102;19.682;2023-04-24T03:32:55;98640.94;;;7.12;100.00
70930;BME280;58588;48.102;19.682;2023-04-24T03:35:57;98645.53;;;7.18;100.00
70930;BME280;58588;48.102;19.682;2023-04-24T03:38:59;98649.91;;;7.34;100.00
70930;BME280;58588;48.102;19.682;2023-04-24T03:42:03;98651.81;;;7.25;100.00
70930;BME280;58588;48.102;19.682;2023-04-24T03:45:06;98653.22;;;7.36;100.00
70930;BME280;58588;48.102;19.682;2023-04-24T03:48:08;98648.41;;;7.46;100.00
70930;BME280;58588;48.102;19.682;2023-04-24T03:51:10;98658.81;;;7.56;100.00
70930;BME280;58588;48.102;19.682;2023-04-24T03:54:13;98655.22;;;7.63;100.00
70930;BME280;58588;48.102;19.682;2023-04-24T03:57:16;98657.59;;;7.73;100.00
70930;BME280;58588;48.102;19.682;2023-04-24T04:00:18;98649.97;;;7.91;100.00
70930;BME280;58588;48.102;19.682;2023-04-24T04:03:21;98658.28;;;7.96;100.00
70930;BME280;58588;48.102;19.682;2023-04-24T04:06:23;98656.25;;;7.98;100.00
70930;BME280;58588;48.102;19.682;2023-04-24T04:09:25;98648.97;;;8.14;100.00
70930;BME280;58588;48.102;19.682;2023-04-24T04:12:29;98650.06;;;8.19;100.00
70930;BME280;58588;48.102;19.682;2023-04-24T04:15:31;98656.81;;;8.15;100.00
70930;BME280;58588;48.102;19.682;2023-04-24T04:18:33;98659.50;;;8.15;100.00
70930;BME280;58588;48.102;19.682;2023-04-24T04:21:35;98649.91;;;8.27;100.00
70930;BME280;58588;48.102;19.682;2023-04-24T04:24:37;98648.25;;;8.26;100.00
70930;BME280;58588;48.102;19.682;2023-04-24T04:27:42;98652.22;;;8.30;100.00
70930;BME280;58588;48.102;19.682;2023-04-24T04:30:44;98649.56;;;8.30;100.00
70930;BME280;58588;48.102;19.682;2023-04-24T04:33:47;98643.44;;;8.37;100.00
70930;BME280;58588;48.102;19.682;2023-04-24T04:36:49;98641.00;;;8.42;100.00
70930;BME280;58588;48.102;19.682;2023-04-24T04:39:51;98633.88;;;8.55;100.00
70930;BME280;58588;48.102;19.682;2023-04-24T04:42:55;98631.50;;;8.67;100.00
70930;BME280;58588;48.102;19.682;2023-04-24T04:45:57;98637.72;;;8.68;100.00
70930;BME280;58588;48.102;19.682;2023-04-24T04:49:01;98642.09;;;8.75;100.00
70930;BME280;58588;48.102;19.682;2023-04-24T04:52:03;98635.06;;;8.74;100.00
70930;BME280;58588;48.102;19.682;2023-04-24T04:55:06;98628.75;;;8.82;100.00
70930;BME280;58588;48.102;19.682;2023-04-24T04:58:09;98626.72;;;8.91;100.00
70930;BME280;58588;48.102;19.682;2023-04-24T05:01:11;98627.16;;;8.94;100.00
70930;BME280;58588;48.102;19.682;2023-04-24T05:04:14;98625.09;;;8.96;100.00
70930;BME280;58588;48.102;19.682;2023-04-24T05:07:16;98629.53;;;9.10;100.00
70930;BME280;58588;48.102;19.682;2023-04-24T05:10:18;98612.84;;;9.22;100.00
70930;BME280;58588;48.102;19.682;2023-04-24T05:13:22;98587.53;;;9.57;100.00
70930;BME280;58588;48.102;19.682;2023-04-24T05:16:24;98590.97;;;9.99;100.00
70930;BME280;58588;48.102;19.682;2023-04-24T05:19:26;98607.53;;;9.96;100.00
70930;BME280;58588;48.102;19.682;2023-04-24T05:22:28;98612.09;;;9.96;100.00
70930;BME280;58588;48.102;19.682;2023-04-24T05:25:30;98588.28;;;10.06;100.00
70930;BME280;58588;48.102;19.682;2023-04-24T05:28:37;98579.84;;;10.68;100.00
70930;BME280;58588;48.102;19.682;2023-04-24T05:31:39;98572.97;;;10.79;100.00
70930;BME280;58588;48.102;19.682;2023-04-24T05:34:41;98576.31;;;10.35;100.00
70930;BME280;58588;48.102;19.682;2023-04-24T05:37:43;98576.75;;;10.38;100.00
70930;BME280;58588;48.102;19.682;2023-04-24T05:40:45;98604.72;;;10.57;100.00
70930;BME280;58588;48.102;19.682;2023-04-24T05:43:48;98602.66;;;10.59;100.00
70930;BME280;58588;48.102;19.682;2023-04-24T05:46:51;98618.22;;;10.57;100.00
70930;BME280;58588;48.102;19.682;2023-04-24T05:49:53;98612.59;;;10.52;100.00
70930;BME280;58588;48.102;19.682;2023-04-24T05:52:55;98607.41;;;10.31;100.00
70930;BME280;58588;48.102;19.682;2023-04-24T05:55:58;98620.81;;;10.17;100.00
70930;BME280;58588;48.102;19.682;2023-04-24T05:59:02;98609.47;;;10.29;100.00
70930;BME280;58588;48.102;19.682;2023-04-24T06:02:04;98613.66;;;10.51;100.00
70930;BME280;58588;48.102;19.682;2023-04-24T06:05:07;98612.38;;;10.67;100.00
70930;BME280;58588;48.102;19.682;2023-04-24T06:08:10;98625.88;;;10.47;100.00
70930;BME280;58588;48.102;19.682;2023-04-24T06:11:12;98616.56;;;10.50;100.00
70930;BME280;58588;48.102;19.682;2023-04-24T06:14:16;98614.69;;;10.63;100.00
70930;BME280;58588;48.102;19.682;2023-04-24T06:17:18;98597.03;;;10.81;100.00
70930;BME280;58588;48.102;19.682;2023-04-24T06:20:20;98603.47;;;10.86;100.00
70930;BME280;58588;48.102;19.682;2023-04-24T06:23:22;98597.47;;;10.58;100.00
70930;BME280;58588;48.102;19.682;2023-04-24T06:26:24;98598.06;;;10.73;100.00
70930;BME280;58588;48.102;19.682;2023-04-24T06:29:30;98597.25;;;10.86;100.00
70930;BME280;58588;48.102;19.682;2023-04-24T06:32:32;98595.94;;;11.02;100.00
70930;BME280;58588;48.102;19.682;2023-04-24T06:35:35;98592.38;;;11.21;100.00
70930;BME280;58588;48.102;19.682;2023-04-24T06:38:38;98595.59;;;11.49;100.00
70930;BME280;58588;48.102;19.682;2023-04-24T06:41:40;98597.56;;;11.74;100.00
70930;BME280;58588;48.102;19.682;2023-04-24T06:44:44;98592.97;;;12.19;100.00
70930;BME280;58588;48.102;19.682;2023-04-24T06:47:46;98590.28;;;12.44;100.00
70930;BME280;58588;48.102;19.682;2023-04-24T06:50:48;98591.94;;;12.70;100.00
70930;BME280;58588;48.102;19.682;2023-04-24T06:53:51;98586.47;;;12.77;100.00
70930;BME280;58588;48.102;19.682;2023-04-24T06:56:53;98582.13;;;12.51;100.00
70930;BME280;58588;48.102;19.682;2023-04-24T06:59:57;98580.13;;;12.65;100.00
70930;BME280;58588;48.102;19.682;2023-04-24T07:02:59;98576.16;;;12.67;100.00
70930;BME280;58588;48.102;19.682;2023-04-24T07:06:01;98576.44;;;12.59;100.00
70930;BME280;58588;48.102;19.682;2023-04-24T07:09:03;98569.25;;;12.46;100.00
70930;BME280;58588;48.102;19.682;2023-04-24T07:12:05;98583.41;;;12.48;100.00
70930;BME280;58588;48.102;19.682;2023-04-24T07:15:10;98573.13;;;12.32;100.00
70930;BME280;58588;48.102;19.682;2023-04-24T07:18:12;98575.66;;;12.27;100.00
70930;BME280;58588;48.102;19.682;2023-04-24T07:21:14;98586.06;;;12.23;100.00
70930;BME280;58588;48.102;19.682;2023-04-24T07:24:16;98588.56;;;12.25;100.00
70930;BME280;58588;48.102;19.682;2023-04-24T07:27:18;98594.69;;;12.39;100.00
70930;BME280;58588;48.102;19.682;2023-04-24T07:30:22;98597.94;;;12.47;100.00
70930;BME280;58588;48.102;19.682;2023-04-24T07:33:24;98598.75;;;12.54;100.00
70930;BME280;58588;48.102;19.682;2023-04-24T07:36:26;98614.34;;;12.52;100.00
70930;BME280;58588;48.102;19.682;2023-04-24T07:39:28;98610.63;;;12.47;100.00
70930;BME280;58588;48.102;19.682;2023-04-24T07:42:30;98618.25;;;12.56;100.00
70930;BME280;58588;48.102;19.682;2023-04-24T07:45:36;98618.09;;;12.76;100.00
70930;BME280;58588;48.102;19.682;2023-04-24T07:48:38;98615.63;;;12.75;100.00
70930;BME280;58588;48.102;19.682;2023-04-24T07:51:40;98613.56;;;12.70;100.00
70930;BME280;58588;48.102;19.682;2023-04-24T07:54:42;98617.53;;;12.43;100.00
70930;BME280;58588;48.102;19.682;2023-04-24T07:57:44;98610.69;;;12.40;100.00
70930;BME280;58588;48.102;19.682;2023-04-24T08:00:48;98614.56;;;12.76;100.00
70930;BME280;58588;48.102;19.682;2023-04-24T08:03:50;98616.78;;;12.85;100.00
70930;BME280;58588;48.102;19.682;2023-04-24T08:06:52;98614.16;;;12.97;100.00
70930;BME280;58588;48.102;19.682;2023-04-24T08:09:54;98605.31;;;13.08;100.00
70930;BME280;58588;48.102;19.682;2023-04-24T08:12:56;98598.72;;;13.23;100.00
70930;BME280;58588;48.102;19.682;2023-04-24T08:16:00;98609.78;;;13.39;100.00
70930;BME280;58588;48.102;19.682;2023-04-24T08:19:02;98609.19;;;13.37;100.00
70930;BME280;58588;48.102;19.682;2023-04-24T08:22:04;98608.56;;;13.54;100.00
70930;BME280;58588;48.102;19.682;2023-04-24T08:25:08;98601.56;;;13.64;100.00
70930;BME280;58588;48.102;19.682;2023-04-24T08:28:10;98601.31;;;13.84;100.00
70930;BME280;58588;48.102;19.682;2023-04-24T08:31:13;98594.06;;;13.97;100.00
70930;BME280;58588;48.102;19.682;2023-04-24T08:34:16;98598.88;;;13.64;100.00
70930;BME280;58588;48.102;19.682;2023-04-24T08:37:18;98606.56;;;13.79;100.00
70930;BME280;58588;48.102;19.682;2023-04-24T08:40:23;98598.41;;;13.86;100.00
70930;BME280;58588;48.102;19.682;2023-04-24T08:43:28;98607.84;;;13.95;100.00
70930;BME280;58588;48.102;19.682;2023-04-24T08:46:31;98596.59;;;14.10;100.00
70930;BME280;58588;48.102;19.682;2023-04-24T08:49:35;98594.72;;;14.52;100.00
70930;BME280;58588;48.102;19.682;2023-04-24T08:52:38;98599.94;;;14.89;100.00
70930;BME280;58588;48.102;19.682;2023-04-24T08:55:41;98587.53;;;15.16;100.00
70930;BME280;58588;48.102;19.682;2023-04-24T08:58:45;98596.84;;;14.73;100.00
70930;BME280;58588;48.102;19.682;2023-04-24T09:01:51;98595.69;;;14.81;100.00
70930;BME280;58588;48.102;19.682;2023-04-24T09:04:55;98594.97;;;14.62;100.00
70930;BME280;58588;48.102;19.682;2023-04-24T09:07:59;98590.28;;;14.69;100.00
70930;BME280;58588;48.102;19.682;2023-04-24T09:11:03;98604.31;;;14.36;100.00
70930;BME280;58588;48.102;19.682;2023-04-24T09:14:06;98597.84;;;14.37;100.00
70930;BME280;58588;48.102;19.682;2023-04-24T09:17:11;98595.88;;;14.14;100.00
70930;BME280;58588;48.102;19.682;2023-04-24T09:20:14;98592.38;;;14.26;100.00
70930;BME280;58588;48.102;19.682;2023-04-24T09:23:17;98600.69;;;14.42;100.00
70930;BME280;58588;48.102;19.682;2023-04-24T09:26:21;98585.28;;;14.55;100.00
70930;BME280;58588;48.102;19.682;2023-04-24T09:29:24;98589.91;;;14.89;100.00
70930;BME280;58588;48.102;19.682;2023-04-24T09:32:28;98586.34;;;15.24;100.00
70930;BME280;58588;48.102;19.682;2023-04-24T09:35:32;98581.78;;;15.53;100.00
70930;BME280;58588;48.102;19.682;2023-04-24T09:38:36;98582.34;;;15.78;100.00
70930;BME280;58588;48.102;19.682;2023-04-24T09:41:44;98589.03;;;15.88;100.00
70930;BME280;58588;48.102;19.682;2023-04-24T09:44:49;98580.75;;;15.66;98.71
70930;BME280;58588;48.102;19.682;2023-04-24T09:47:55;98579.38;;;15.80;98.82
70930;BME280;58588;48.102;19.682;2023-04-24T09:50:57;98568.50;;;16.09;97.43
70930;BME280;58588;48.102;19.682;2023-04-24T09:53:59;98564.81;;;16.48;93.83
70930;BME280;58588;48.102;19.682;2023-04-24T09:57:01;98559.97;;;16.50;93.36
70930;BME280;58588;48.102;19.682;2023-04-24T10:00:05;98552.56;;;16.79;90.58
70930;BME280;58588;48.102;19.682;2023-04-24T10:03:08;98554.81;;;17.43;88.64
70930;BME280;58588;48.102;19.682;2023-04-24T10:06:12;98559.41;;;17.86;81.92
70930;BME280;58588;48.102;19.682;2023-04-24T10:09:15;98546.00;;;18.07;84.66
70930;BME280;58588;48.102;19.682;2023-04-24T10:12:17;98547.16;;;18.75;79.53
70930;BME280;58588;48.102;19.682;2023-04-24T10:15:20;98538.41;;;19.15;76.82
70930;BME280;58588;48.102;19.682;2023-04-24T10:18:24;98542.88;;;19.37;77.23
70930;BME280;58588;48.102;19.682;2023-04-24T10:21:27;98532.78;;;19.37;76.70
70930;BME280;58588;48.102;19.682;2023-04-24T10:24:31;98531.47;;;19.50;71.25
70930;BME280;58588;48.102;19.682;2023-04-24T10:27:36;98523.47;;;19.38;73.65
70930;BME280;58588;48.102;19.682;2023-04-24T10:30:42;98525.31;;;19.85;72.62
70930;BME280;58588;48.102;19.682;2023-04-24T10:33:46;98522.06;;;20.03;72.78
70930;BME280;58588;48.102;19.682;2023-04-24T10:36:51;98521.50;;;19.91;69.93
70930;BME280;58588;48.102;19.682;2023-04-24T10:39:54;98528.28;;;19.68;72.01
70930;BME280;58588;48.102;19.682;2023-04-24T10:42:57;98519.84;;;19.85;73.07
70930;BME280;58588;48.102;19.682;2023-04-24T10:46:03;98521.38;;;19.61;71.34
70930;BME280;58588;48.102;19.682;2023-04-24T10:49:07;98511.94;;;19.26;72.56
70930;BME280;58588;48.102;19.682;2023-04-24T10:52:10;98516.66;;;19.46;74.23
70930;BME280;58588;48.102;19.682;2023-04-24T10:55:12;98510.28;;;19.20;72.47
70930;BME280;58588;48.102;19.682;2023-04-24T10:58:16;98507.03;;;20.16;73.40
70930;BME280;58588;48.102;19.682;2023-04-24T11:01:25;98512.47;;;19.96;69.10
70930;BME280;58588;48.102;19.682;2023-04-24T11:04:32;98516.22;;;19.64;70.17
70930;BME280;58588;48.102;19.682;2023-04-24T11:11:12;98509.94;;;19.06;70.27
70930;BME280;58588;48.102;19.682;2023-04-24T11:14:14;98515.16;;;19.08;71.91
70930;BME280;58588;48.102;19.682;2023-04-24T11:17:30;98515.84;;;18.88;74.01
70930;BME280;58588;48.102;19.682;2023-04-24T11:20:35;98520.50;;;18.92;73.12
70930;BME280;58588;48.102;19.682;2023-04-24T11:23:37;98513.81;;;18.68;74.14
70930;BME280;58588;48.102;19.682;2023-04-24T11:26:39;98526.31;;;18.32;76.08
70930;BME280;58588;48.102;19.682;2023-04-24T11:29:47;98519.38;;;18.19;77.13
70930;BME280;58588;48.102;19.682;2023-04-24T11:32:51;98530.34;;;18.24;78.27
70930;BME280;58588;48.102;19.682;2023-04-24T11:35:54;98520.41;;;17.86;79.18
70930;BME280;58588;48.102;19.682;2023-04-24T11:38:57;98523.59;;;17.56;83.54
70930;BME280;58588;48.102;19.682;2023-04-24T11:42:02;98528.28;;;17.33;83.64
70930;BME280;58588;48.102;19.682;2023-04-24T11:45:11;98517.94;;;17.35;82.76
70930;BME280;58588;48.102;19.682;2023-04-24T11:48:18;98519.38;;;17.21;86.57
70930;BME280;58588;48.102;19.682;2023-04-24T11:51:24;98517.97;;;17.19;87.60
70930;BME280;58588;48.102;19.682;2023-04-24T11:54:27;98512.88;;;17.22;87.33
70930;BME280;58588;48.102;19.682;2023-04-24T11:57:29;98517.63;;;17.10;88.10
70930;BME280;58588;48.102;19.682;2023-04-24T12:00:34;98509.66;;;16.87;90.06
70930;BME280;58588;48.102;19.682;2023-04-24T12:03:37;98510.91;;;16.79;91.55
70930;BME280;58588;48.102;19.682;2023-04-24T12:06:40;98506.03;;;16.47;92.28
70930;BME280;58588;48.102;19.682;2023-04-24T12:10:00;98506.13;;;16.36;95.41
70930;BME280;58588;48.102;19.682;2023-04-24T12:13:02;98502.75;;;16.45;93.94
70930;BME280;58588;48.102;19.682;2023-04-24T12:16:04;98492.53;;;16.36;94.43
70930;BME280;58588;48.102;19.682;2023-04-24T12:19:06;98495.00;;;16.37;95.25
70930;BME280;58588;48.102;19.682;2023-04-24T12:22:10;98496.91;;;16.37;96.42
70930;BME280;58588;48.102;19.682;2023-04-24T12:25:12;98493.03;;;16.16;96.05
70930;BME280;58588;48.102;19.682;2023-04-24T12:28:15;98485.28;;;16.08;98.08
70930;BME280;58588;48.102;19.682;2023-04-24T12:31:17;98484.94;;;16.04;98.52
70930;BME280;58588;48.102;19.682;2023-04-24T12:34:19;98488.25;;;16.06;99.41
70930;BME280;58588;48.102;19.682;2023-04-24T12:37:24;98483.91;;;15.76;100.00
70930;BME280;58588;48.102;19.682;2023-04-24T12:40:27;98477.16;;;15.62;100.00
70930;BME280;58588;48.102;19.682;2023-04-24T12:43:30;98482.44;;;15.69;100.00
70930;BME280;58588;48.102;19.682;2023-04-24T12:46:32;98477.56;;;15.71;100.00
70930;BME280;58588;48.102;19.682;2023-04-24T12:49:34;98472.16;;;15.59;100.00
70930;BME280;58588;48.102;19.682;2023-04-24T12:52:38;98470.31;;;15.76;100.00
70930;BME280;58588;48.102;19.682;2023-04-24T12:55:41;98466.97;;;15.86;100.00
70930;BME280;58588;48.102;19.682;2023-04-24T12:58:44;98458.25;;;16.01;100.00
70930;BME280;58588;48.102;19.682;2023-04-24T13:01:46;98460.06;;;16.12;100.00
70930;BME280;58588;48.102;19.682;2023-04-24T13:04:49;98458.03;;;16.02;100.00
70930;BME280;58588;48.102;19.682;2023-04-24T13:07:52;98457.69;;;15.99;100.00
70930;BME280;58588;48.102;19.682;2023-04-24T13:10:54;98448.78;;;15.87;100.00
70930;BME280;58588;48.102;19.682;2023-04-24T13:13:56;98458.41;;;15.94;100.00
70930;BME280;58588;48.102;19.682;2023-04-24T13:16:58;98447.44;;;15.72;100.00
70930;BME280;58588;48.102;19.682;2023-04-24T13:20:00;98448.53;;;15.88;100.00
70930;BME280;58588;48.102;19.682;2023-04-24T13:23:04;98443.75;;;15.50;100.00
70930;BME280;58588;48.102;19.682;2023-04-24T13:26:06;98437.69;;;15.60;100.00
70930;BME280;58588;48.102;19.682;2023-04-24T13:29:09;98431.81;;;15.51;100.00
70930;BME280;58588;48.102;19.682;2023-04-24T13:32:11;98422.44;;;15.59;100.00
70930;BME280;58588;48.102;19.682;2023-04-24T13:35:13;98420.13;;;15.79;100.00
70930;BME280;58588;48.102;19.682;2023-04-24T13:38:16;98423.66;;;15.79;100.00
70930;BME280;58588;48.102;19.682;2023-04-24T13:41:21;98423.16;;;15.66;100.00
70930;BME280;58588;48.102;19.682;2023-04-24T13:44:42;98421.75;;;15.80;100.00
70930;BME280;58588;48.102;19.682;2023-04-24T13:48:32;98415.16;;;15.93;100.00
70930;BME280;58588;48.102;19.682;2023-04-24T13:51:34;98414.25;;;15.87;100.00
70930;BME280;58588;48.102;19.682;2023-04-24T13:54:40;98416.91;;;15.99;100.00
70930;BME280;58588;48.102;19.682;2023-04-24T13:57:42;98413.69;;;16.02;100.00
70930;BME280;58588;48.102;19.682;2023-04-24T14:00:44;98409.56;;;15.99;100.00
70930;BME280;58588;48.102;19.682;2023-04-24T14:03:46;98412.97;;;15.90;100.00
70930;BME280;58588;48.102;19.682;2023-04-24T14:06:48;98409.06;;;15.86;100.00
70930;BME280;58588;48.102;19.682;2023-04-24T14:09:52;98406.28;;;15.81;100.00
70930;BME280;58588;48.102;19.682;2023-04-24T14:12:54;98411.00;;;15.57;100.00
70930;BME280;58588;48.102;19.682;2023-04-24T14:15:56;98409.25;;;15.50;100.00
70930;BME280;58588;48.102;19.682;2023-04-24T14:18:58;98392.75;;;15.23;100.00
70930;BME280;58588;48.102;19.682;2023-04-24T14:22:00;98396.50;;;15.06;100.00
70930;BME280;58588;48.102;19.682;2023-04-24T14:25:04;98387.47;;;14.88;100.00
70930;BME280;58588;48.102;19.682;2023-04-24T14:28:07;98397.13;;;14.84;100.00
70930;BME280;58588;48.102;19.682;2023-04-24T14:31:09;98400.44;;;14.75;100.00
70930;BME280;58588;48.102;19.682;2023-04-24T14:34:12;98392.81;;;14.71;100.00
70930;BME280;58588;48.102;19.682;2023-04-24T14:37:15;98397.53;;;14.76;100.00
70930;BME280;58588;48.102;19.682;2023-04-24T14:40:19;98385.75;;;14.70;100.00
70930;BME280;58588;48.102;19.682;2023-04-24T14:43:21;98384.28;;;14.80;100.00
70930;BME280;58588;48.102;19.682;2023-04-24T14:46:23;98390.81;;;14.67;100.00
70930;BME280;58588;48.102;19.682;2023-04-24T14:49:26;98390.81;;;14.67;100.00
70930;BME280;58588;48.102;19.682;2023-04-24T14:52:28;98386.44;;;14.66;100.00
70930;BME280;58588;48.102;19.682;2023-04-24T14:55:31;98392.84;;;14.60;100.00
70930;BME280;58588;48.102;19.682;2023-04-24T14:58:35;98390.00;;;14.55;100.00
70930;BME280;58588;48.102;19.682;2023-04-24T15:01:37;98385.16;;;14.57;100.00
70930;BME280;58588;48.102;19.682;2023-04-24T15:04:39;98385.38;;;14.67;100.00
70930;BME280;58588;48.102;19.682;2023-04-24T15:07:41;98386.00;;;14.45;100.00
70930;BME280;58588;48.102;19.682;2023-04-24T15:10:45;98382.81;;;14.49;100.00
70930;BME280;58588;48.102;19.682;2023-04-24T15:13:47;98390.13;;;14.48;100.00
70930;BME280;58588;48.102;19.682;2023-04-24T15:16:49;98384.56;;;14.43;100.00
70930;BME280;58588;48.102;19.682;2023-04-24T15:19:51;98386.34;;;14.37;100.00
70930;BME280;58588;48.102;19.682;2023-04-24T15:22:53;98385.66;;;14.18;100.00
70930;BME280;58588;48.102;19.682;2023-04-24T15:25:56;98387.19;;;14.14;100.00
70930;BME280;58588;48.102;19.682;2023-04-24T15:28:59;98387.78;;;14.05;100.00
70930;BME280;58588;48.102;19.682;2023-04-24T15:32:01;98383.06;;;14.12;100.00
70930;BME280;58588;48.102;19.682;2023-04-24T15:35:04;98391.06;;;14.07;100.00
70930;BME280;58588;48.102;19.682;2023-04-24T15:38:06;98395.53;;;14.01;100.00
70930;BME280;58588;48.102;19.682;2023-04-24T15:41:10;98395.78;;;14.00;100.00
70930;BME280;58588;48.102;19.682;2023-04-24T15:44:12;98400.84;;;14.08;100.00
70930;BME280;58588;48.102;19.682;2023-04-24T15:47:14;98401.78;;;14.02;100.00
70930;BME280;58588;48.102;19.682;2023-04-24T15:50:16;98404.75;;;14.00;100.00
70930;BME280;58588;48.102;19.682;2023-04-24T15:53:18;98402.97;;;14.06;100.00
70930;BME280;58588;48.102;19.682;2023-04-24T15:56:24;98414.53;;;14.13;100.00